createdAt,value
2022-11-10T00:02:03.030Z,96927.72
2022-11-10T00:04:47.994Z,96942.94
2022-11-10T00:07:32.987Z,96937.00
2022-11-10T00:10:17.989Z,96938.72
2022-11-10T00:13:03.666Z,96942.69
2022-11-10T00:16:07.430Z,96948.09
2022-11-10T00:18:52.584Z,96947.19
2022-11-10T00:21:38.028Z,96939.28
2022-11-10T00:24:24.784Z,96940.34
2022-11-10T00:27:09.893Z,96940.66
2022-11-10T00:29:55.495Z,96938.84
2022-11-10T00:32:40.777Z,96939.72
2022-11-10T00:35:25.786Z,96951.03
2022-11-10T00:38:10.707Z,96947.38
2022-11-10T00:40:58.658Z,96957.47
2022-11-10T00:43:43.892Z,96954.25
2022-11-10T00:46:28.899Z,96954.56
2022-11-10T00:49:13.970Z,96964.19
2022-11-10T00:51:59.075Z,96963.41
2022-11-10T00:54:44.293Z,96954.66
2022-11-10T00:57:29.331Z,96965.06
2022-11-10T01:00:14.636Z,96962.94
2022-11-10T01:02:59.988Z,96968.28
2022-11-10T01:05:45.223Z,96983.59
2022-11-10T01:08:30.269Z,96982.03
2022-11-10T01:11:21.476Z,96986.38
2022-11-10T01:14:06.787Z,96985.63
2022-11-10T01:16:51.855Z,96983.34
2022-11-10T01:19:36.893Z,96989.13
2022-11-10T01:22:21.988Z,96980.94
2022-11-10T01:25:08.162Z,96986.72
2022-11-10T01:27:53.594Z,96986.28
2022-11-10T01:30:38.940Z,96978.94
2022-11-10T01:33:24.607Z,96971.75
2022-11-10T01:36:11.386Z,96976.06
2022-11-10T01:38:56.392Z,96986.13
2022-11-10T01:41:41.472Z,96987.97
2022-11-10T01:44:26.666Z,97001.88
2022-11-10T01:47:12.045Z,96996.38
2022-11-10T01:49:57.052Z,97006.16
2022-11-10T01:52:46.978Z,97011.19
2022-11-10T01:55:34.775Z,97000.66
2022-11-10T01:58:23.864Z,97012.09
2022-11-10T02:01:09.770Z,97008.75
2022-11-10T02:04:01.639Z,97011.69
2022-11-10T02:06:49.278Z,97007.22
2022-11-10T02:09:34.224Z,97014.69
2022-11-10T02:12:36.961Z,97016.72
2022-11-10T02:15:22.649Z,97024.50
2022-11-10T02:18:07.711Z,97019.63
2022-11-10T02:20:53.044Z,97032.75
2022-11-10T02:23:38.350Z,97040.84
2022-11-10T02:26:25.740Z,97043.88
2022-11-10T02:29:10.745Z,97057.03
2022-11-10T02:31:55.748Z,97055.94
2022-11-10T02:34:40.844Z,97068.75
2022-11-10T02:37:25.697Z,97073.94
2022-11-10T02:40:11.033Z,97072.88
2022-11-10T02:42:56.144Z,97069.50
2022-11-10T02:45:44.616Z,97068.00
2022-11-10T02:48:29.636Z,97068.16
2022-11-10T02:51:14.755Z,97077.28
2022-11-10T02:54:00.005Z,97074.97
2022-11-10T02:56:45.189Z,97080.06
2022-11-10T02:59:30.148Z,97090.88
2022-11-10T03:02:15.505Z,97094.38
2022-11-10T03:05:00.393Z,97100.50
2022-11-10T03:07:45.861Z,97111.47
2022-11-10T03:10:31.709Z,97103.81
2022-11-10T03:13:16.925Z,97099.25
2022-11-10T03:16:01.923Z,97103.97
2022-11-10T03:18:46.885Z,97109.16
2022-11-10T03:21:31.731Z,97108.50
2022-11-10T03:24:16.779Z,97107.91
2022-11-10T03:27:01.781Z,97105.16
2022-11-10T03:29:46.890Z,97101.84
2022-11-10T03:32:32.367Z,97117.66
2022-11-10T03:35:17.629Z,97113.25
2022-11-10T03:38:03.884Z,97093.56
2022-11-10T03:43:57.700Z,97090.06
2022-11-10T03:46:43.670Z,97101.06
2022-11-10T03:49:29.328Z,97102.44
2022-11-10T03:52:15.461Z,97101.03
2022-11-10T03:55:03.368Z,97098.44
2022-11-10T03:57:48.791Z,97115.06
2022-11-10T04:00:33.987Z,97116.88
2022-11-10T04:03:19.500Z,97123.28
2022-11-10T04:06:23.869Z,97129.03
2022-11-10T04:09:09.346Z,97122.66
2022-11-10T04:12:13.068Z,97124.56
2022-11-10T04:15:17.235Z,97119.13
2022-11-10T04:18:21.103Z,97103.19
2022-11-10T04:21:06.702Z,97087.28
2022-11-10T04:23:52.069Z,97098.38
2022-11-10T04:26:40.727Z,97100.06
2022-11-10T04:29:25.999Z,97094.63
2022-11-10T04:32:11.026Z,97072.50
2022-11-10T04:34:56.340Z,97079.53
2022-11-10T04:37:41.469Z,97066.41
2022-11-10T04:40:26.760Z,97053.22
2022-11-10T04:43:11.962Z,97061.63
2022-11-10T04:45:58.803Z,97053.63
2022-11-10T04:48:44.157Z,97071.13
2022-11-10T04:51:32.077Z,97077.41
2022-11-10T04:54:17.569Z,97086.56
2022-11-10T04:57:02.693Z,97092.41
2022-11-10T04:59:47.818Z,97091.28
2022-11-10T05:02:38.331Z,97089.56
2022-11-10T05:05:24.938Z,97105.72
2022-11-10T05:08:12.807Z,97091.41
2022-11-10T05:10:58.049Z,97109.41
2022-11-10T05:13:44.862Z,97089.09
2022-11-10T05:16:30.060Z,97090.94
2022-11-10T05:19:15.192Z,97099.50
2022-11-10T05:22:00.354Z,97084.75
2022-11-10T05:24:45.586Z,97098.59
2022-11-10T05:27:30.731Z,97099.47
2022-11-10T05:30:16.219Z,97099.06
2022-11-10T05:33:02.529Z,97118.94
2022-11-10T05:35:50.042Z,97116.47
2022-11-10T05:38:40.274Z,97110.97
2022-11-10T05:41:28.221Z,97110.06
2022-11-10T05:44:13.631Z,97104.03
2022-11-10T05:46:58.687Z,97105.22
2022-11-10T05:49:43.864Z,97124.31
2022-11-10T05:52:29.175Z,97134.84
2022-11-10T05:55:15.031Z,97146.66
2022-11-10T05:58:00.261Z,97138.31
2022-11-10T06:00:45.339Z,97135.38
2022-11-10T06:03:31.503Z,97125.00
2022-11-10T06:06:18.162Z,97137.97
2022-11-10T06:09:03.200Z,97172.00
2022-11-10T06:11:48.520Z,97152.69
2022-11-10T06:14:33.737Z,97176.56
2022-11-10T06:17:19.036Z,97165.19
2022-11-10T06:20:04.666Z,97165.88
2022-11-10T06:23:07.997Z,97184.16
2022-11-10T06:25:53.316Z,97184.56
2022-11-10T06:28:38.202Z,97174.78
2022-11-10T06:31:23.487Z,97190.72
2022-11-10T06:34:08.720Z,97213.88
2022-11-10T06:36:53.681Z,97210.44
2022-11-10T06:39:38.721Z,97202.47
2022-11-10T06:42:23.673Z,97211.78
2022-11-10T06:45:08.999Z,97220.03
2022-11-10T06:48:10.083Z,97243.53
2022-11-10T06:50:55.277Z,97232.28
2022-11-10T06:53:40.419Z,97237.09
2022-11-10T06:56:25.451Z,97251.09
2022-11-10T06:59:10.574Z,97285.28
2022-11-10T07:01:55.607Z,97283.09
2022-11-10T07:04:40.991Z,97283.97
2022-11-10T07:07:26.097Z,97292.84
2022-11-10T07:10:11.100Z,97307.06
2022-11-10T07:12:57.797Z,97326.69
2022-11-10T07:15:43.109Z,97329.94
2022-11-10T07:18:28.203Z,97322.19
2022-11-10T07:21:13.469Z,97332.34
2022-11-10T07:23:58.877Z,97325.00
2022-11-10T07:26:43.912Z,97327.19
2022-11-10T07:29:28.895Z,97321.16
2022-11-10T07:32:14.934Z,97323.84
2022-11-10T07:34:59.803Z,97325.69
2022-11-10T07:37:45.034Z,97331.22
2022-11-10T07:40:30.602Z,97339.75
2022-11-10T07:43:15.595Z,97326.53
2022-11-10T07:46:00.989Z,97320.28
2022-11-10T07:48:45.879Z,97311.94
2022-11-10T07:51:31.404Z,97333.31
2022-11-10T07:54:16.543Z,97337.84
2022-11-10T07:57:01.666Z,97360.97
2022-11-10T07:59:46.661Z,97367.41
2022-11-10T08:02:31.802Z,97362.16
2022-11-10T08:05:17.024Z,97369.19
2022-11-10T08:08:03.109Z,97368.03
2022-11-10T08:10:48.256Z,97359.97
2022-11-10T08:13:33.529Z,97355.16
2022-11-10T08:16:18.923Z,97385.06
2022-11-10T08:19:04.162Z,97373.72
2022-11-10T08:21:49.144Z,97381.06
2022-11-10T08:24:34.452Z,97387.38
2022-11-10T08:27:19.826Z,97396.28
2022-11-10T08:30:05.436Z,97409.59
2022-11-10T08:32:54.139Z,97433.25
2022-11-10T08:35:42.041Z,97420.69
2022-11-10T08:38:27.577Z,97432.28
2022-11-10T08:41:12.513Z,97429.03
2022-11-10T08:43:57.647Z,97443.53
2022-11-10T08:46:46.957Z,97466.00
2022-11-10T08:49:32.192Z,97480.03
2022-11-10T08:52:17.188Z,97491.38
2022-11-10T08:55:02.334Z,97498.28
2022-11-10T08:57:48.522Z,97504.22
2022-11-10T09:00:33.865Z,97516.63
2022-11-10T09:03:24.986Z,97535.88
2022-11-10T09:06:10.520Z,97543.28
2022-11-10T09:08:55.787Z,97559.41
2022-11-10T09:11:41.069Z,97580.06
2022-11-10T09:14:26.147Z,97598.31
2022-11-10T09:17:11.112Z,97601.91
2022-11-10T09:19:56.056Z,97617.72
2022-11-10T09:22:41.753Z,97649.19
2022-11-10T09:25:27.141Z,97671.06
2022-11-10T09:28:14.258Z,97706.22
2022-11-10T09:30:59.876Z,97725.00
2022-11-10T09:33:44.800Z,97713.00
2022-11-10T09:36:29.849Z,97763.22
2022-11-10T09:39:15.331Z,97779.03
2022-11-10T09:42:00.663Z,97797.06
2022-11-10T09:45:13.131Z,97812.06
2022-11-10T09:48:17.242Z,97802.78
2022-11-10T09:51:09.975Z,97814.06
2022-11-10T09:54:05.841Z,97852.94
2022-11-10T09:56:53.656Z,97835.47
2022-11-10T09:59:39.495Z,97845.25
2022-11-10T10:02:33.744Z,97875.09
2022-11-10T10:05:32.583Z,97879.19
2022-11-10T10:08:26.882Z,97880.75
2022-11-10T10:11:27.224Z,97872.03
2022-11-10T10:14:27.991Z,97876.50
2022-11-10T10:17:24.779Z,97879.97
2022-11-10T10:20:36.836Z,97903.97
2022-11-10T10:24:02.642Z,97921.22
2022-11-10T10:26:45.391Z,98041.22
2022-11-10T10:29:57.079Z,98026.16
2022-11-10T10:32:42.734Z,98100.97
2022-11-10T10:35:28.564Z,98141.56
2022-11-10T10:38:25.665Z,98169.41
2022-11-10T10:41:32.368Z,98230.16
2022-11-10T10:44:19.629Z,98270.34
2022-11-10T10:47:05.131Z,98272.63
2022-11-10T10:49:50.493Z,98279.78
2022-11-10T10:52:35.894Z,98292.00
2022-11-10T10:55:21.149Z,98283.41
2022-11-10T10:58:23.067Z,98286.19
2022-11-10T11:01:18.374Z,98284.59
2022-11-10T11:04:36.323Z,98305.47
2022-11-10T11:07:25.581Z,98279.66
2022-11-10T11:10:44.541Z,98267.34
2022-11-10T11:13:30.154Z,98275.50
2022-11-10T11:16:15.366Z,98297.22
2022-11-10T11:19:00.669Z,98251.25
2022-11-10T11:22:11.305Z,98261.94
2022-11-10T11:25:24.283Z,98275.44
2022-11-10T11:28:35.206Z,98307.13
2022-11-10T11:31:32.402Z,98385.31
2022-11-10T11:34:41.081Z,98378.22
2022-11-10T11:38:07.952Z,98448.81
2022-11-10T11:41:09.100Z,98451.56
2022-11-10T11:44:12.818Z,98402.53
2022-11-10T11:47:18.678Z,98390.63
2022-11-10T11:50:25.144Z,98378.22
2022-11-10T11:53:16.040Z,98430.34
2022-11-10T11:56:11.289Z,98404.25
2022-11-10T11:59:14.398Z,98478.41
2022-11-10T12:02:42.403Z,98463.81
2022-11-10T12:09:09.396Z,98539.59
2022-11-10T12:12:02.872Z,98545.16
2022-11-10T12:15:25.483Z,98581.34
2022-11-10T12:18:30.180Z,98552.09
2022-11-10T12:21:28.760Z,98598.94
2022-11-10T12:24:32.470Z,98588.84
2022-11-10T12:27:37.392Z,98626.84
2022-11-10T12:30:22.746Z,98646.22
2022-11-10T12:33:40.702Z,98613.84
2022-11-10T12:36:29.548Z,98644.97
2022-11-10T12:39:23.441Z,98665.38
2022-11-10T12:42:14.911Z,98643.19
2022-11-10T12:45:07.800Z,98575.59
2022-11-10T12:47:54.330Z,98601.91
2022-11-10T12:50:53.605Z,98651.81
2022-11-10T12:53:41.802Z,98602.34
2022-11-10T12:56:37.531Z,98591.06
2022-11-10T12:59:26.897Z,98611.72
2022-11-10T13:02:33.658Z,98656.94
2022-11-10T13:05:38.455Z,98630.97
2022-11-10T13:08:27.571Z,98618.47
2022-11-10T13:11:12.623Z,98604.94
2022-11-10T13:14:00.572Z,98622.31
2022-11-10T13:16:49.945Z,98631.31
2022-11-10T13:19:38.943Z,98648.00
2022-11-10T13:22:31.838Z,98615.19
2022-11-10T13:25:36.393Z,98628.53
2022-11-10T13:28:46.711Z,98605.56
2022-11-10T13:31:32.027Z,98570.41
2022-11-10T13:34:27.823Z,98555.22
2022-11-10T13:37:34.661Z,98520.69
2022-11-10T13:40:26.045Z,98521.78
2022-11-10T13:43:14.336Z,98520.44
2022-11-10T13:46:02.111Z,98500.25
2022-11-10T13:48:59.212Z,98477.69
2022-11-10T13:52:11.159Z,98459.63
2022-11-10T13:55:16.617Z,98498.94
2022-11-10T13:58:21.641Z,98489.28
2022-11-10T14:01:19.021Z,98490.97
2022-11-10T14:04:05.023Z,98477.75
2022-11-10T14:06:55.579Z,98487.78
2022-11-10T14:09:44.618Z,98474.38
2022-11-10T14:12:39.756Z,98454.78
2022-11-10T14:15:37.044Z,98465.00
2022-11-10T14:18:26.033Z,98474.84
2022-11-10T14:21:21.430Z,98490.59
2022-11-10T14:24:20.915Z,98508.88
2022-11-10T14:27:13.180Z,98475.66
2022-11-10T14:30:24.864Z,98462.03
2022-11-10T14:33:12.845Z,98407.97
2022-11-10T14:36:01.415Z,98438.94
2022-11-10T14:38:47.047Z,98434.63
2022-11-10T14:41:32.707Z,98441.84
2022-11-10T14:44:26.906Z,98440.47
2022-11-10T14:47:31.238Z,98442.81
2022-11-10T14:50:20.744Z,98407.81
2022-11-10T14:53:29.357Z,98411.59
2022-11-10T14:56:19.110Z,98415.66
2022-11-10T14:59:07.650Z,98417.78
2022-11-10T15:01:58.246Z,98376.91
2022-11-10T15:04:46.184Z,98386.38
2022-11-10T15:07:31.985Z,98351.69
2022-11-10T15:10:42.432Z,98325.22
2022-11-10T15:13:27.370Z,98304.66
2022-11-10T15:16:26.313Z,98294.25
2022-11-10T15:19:28.439Z,98283.72
2022-11-10T15:22:33.558Z,98292.59
2022-11-10T15:25:22.289Z,98275.63
2022-11-10T15:28:22.933Z,98266.16
2022-11-10T15:31:12.040Z,98261.81
2022-11-10T15:34:02.480Z,98237.59
2022-11-10T15:36:47.772Z,98223.88
2022-11-10T15:39:33.045Z,98209.06
2022-11-10T15:42:24.019Z,98174.72
2022-11-10T15:45:09.778Z,98167.75
2022-11-10T15:47:55.825Z,98147.34
2022-11-10T15:50:42.565Z,98129.91
2022-11-10T15:53:37.420Z,98128.44
2022-11-10T15:56:24.870Z,98112.63
2022-11-10T15:59:10.980Z,98104.81
2022-11-10T16:01:56.267Z,98094.38
2022-11-10T16:04:41.543Z,98081.22
2022-11-10T16:07:26.737Z,98070.56
2022-11-10T16:10:12.105Z,98071.72
2022-11-10T16:12:57.568Z,98061.09
2022-11-10T16:15:45.311Z,98061.78
2022-11-10T16:18:31.496Z,98060.38
2022-11-10T16:21:22.115Z,98069.47
2022-11-10T16:24:07.322Z,98044.00
2022-11-10T16:26:52.717Z,98035.34
2022-11-10T16:29:38.391Z,98040.19
2022-11-10T16:32:23.595Z,98038.03
2022-11-10T16:35:13.902Z,98031.78
2022-11-10T16:37:59.076Z,98017.44
2022-11-10T16:40:44.373Z,98020.03
2022-11-10T16:43:31.430Z,98007.56
2022-11-10T16:46:25.676Z,97996.22
2022-11-10T16:49:26.648Z,98008.75
2022-11-10T16:52:15.904Z,97999.69
2022-11-10T16:55:01.293Z,98000.63
2022-11-10T16:57:47.683Z,97997.72
2022-11-10T17:00:33.079Z,97997.31
2022-11-10T17:03:29.568Z,97992.34
2022-11-10T17:06:16.426Z,97992.50
2022-11-10T17:09:09.157Z,97993.19
2022-11-10T17:11:54.586Z,97992.78
2022-11-10T17:14:39.513Z,97985.00
2022-11-10T17:17:24.863Z,97983.16
2022-11-10T17:20:20.333Z,97979.69
2022-11-10T17:23:07.208Z,97985.25
2022-11-10T17:25:54.187Z,97992.22
2022-11-10T17:28:39.437Z,97987.22
2022-11-10T17:31:24.447Z,97984.31
2022-11-10T17:34:09.759Z,97995.31
2022-11-10T17:36:54.993Z,97993.97
2022-11-10T17:39:40.581Z,98010.19
2022-11-10T17:42:25.570Z,97999.03
2022-11-10T17:45:37.186Z,98004.50
2022-11-10T17:48:22.596Z,98007.84
2022-11-10T17:51:20.035Z,97999.72
2022-11-10T17:54:08.789Z,98013.66
2022-11-10T17:56:54.057Z,98013.41
2022-11-10T17:59:39.427Z,98025.88
2022-11-10T18:02:24.851Z,98027.16
2022-11-10T18:05:15.187Z,98010.44
2022-11-10T18:08:00.566Z,98020.69
2022-11-10T18:10:51.141Z,98000.16
2022-11-10T18:13:40.563Z,97995.16
2022-11-10T18:16:27.114Z,97997.81
2022-11-10T18:19:12.181Z,98002.66
2022-11-10T18:21:57.732Z,97998.66
2022-11-10T18:24:43.033Z,98011.72
2022-11-10T18:27:28.626Z,98012.75
2022-11-10T18:30:14.697Z,98011.72
2022-11-10T18:33:04.273Z,98013.81
2022-11-10T18:35:49.663Z,98010.09
2022-11-10T18:38:35.918Z,98006.94
2022-11-10T18:41:39.599Z,98005.88
2022-11-10T18:44:25.030Z,98003.41
2022-11-10T18:47:12.707Z,98002.25
2022-11-10T18:49:57.929Z,98000.41
2022-11-10T18:52:43.507Z,97980.38
2022-11-10T18:55:28.728Z,97972.06
2022-11-10T18:58:13.723Z,97973.94
2022-11-10T19:01:10.277Z,97979.94
2022-11-10T19:03:55.828Z,97984.75
2022-11-10T19:06:40.856Z,97990.75
2022-11-10T19:09:25.990Z,97998.88
2022-11-10T19:12:11.904Z,98003.81
2022-11-10T19:14:56.853Z,98015.47
2022-11-10T19:17:41.892Z,98009.09
2022-11-10T19:20:26.703Z,98009.94
2022-11-10T19:23:11.711Z,98011.88
2022-11-10T19:26:05.780Z,97993.84
2022-11-10T19:28:50.847Z,97985.41
2022-11-10T19:31:36.102Z,97987.59
2022-11-10T19:34:21.422Z,97991.31
2022-11-10T19:37:07.303Z,97978.72
2022-11-10T19:39:52.569Z,97964.69
2022-11-10T19:42:37.456Z,97962.44
2022-11-10T19:45:22.769Z,97955.03
2022-11-10T19:48:07.774Z,97945.38
2022-11-10T19:50:56.613Z,97948.09
2022-11-10T19:53:43.939Z,97953.22
2022-11-10T19:56:32.089Z,97940.44
2022-11-10T19:59:19.293Z,97953.03
2022-11-10T20:02:04.421Z,97948.38
2022-11-10T20:05:08.166Z,97934.31
2022-11-10T20:08:11.679Z,97950.13
2022-11-10T20:11:06.128Z,97938.00
2022-11-10T20:13:54.646Z,97934.59
2022-11-10T20:16:40.228Z,97937.25
2022-11-10T20:19:25.406Z,97930.63
2022-11-10T20:22:12.797Z,97916.31
2022-11-10T20:24:58.205Z,97895.06
2022-11-10T20:27:43.744Z,97906.03
2022-11-10T20:30:28.852Z,97918.97
2022-11-10T20:33:14.267Z,97931.22
2022-11-10T20:36:15.966Z,97929.38
2022-11-10T20:39:04.296Z,97941.56
2022-11-10T20:41:50.957Z,97944.66
2022-11-10T20:44:36.543Z,97948.31
2022-11-10T20:47:21.792Z,97942.50
2022-11-10T20:50:13.105Z,97928.56
2022-11-10T20:52:59.896Z,97912.50
2022-11-10T20:55:53.586Z,97907.44
2022-11-10T20:58:39.519Z,97890.00
2022-11-10T21:01:24.896Z,97883.09
2022-11-10T21:04:10.993Z,97884.16
2022-11-10T21:06:56.084Z,97883.66
2022-11-10T21:09:41.629Z,97880.09
2022-11-10T21:12:45.291Z,97880.34
2022-11-10T21:15:30.544Z,97886.38
2022-11-10T21:18:16.008Z,97889.81
2022-11-10T21:21:01.057Z,97878.19
2022-11-10T21:23:46.139Z,97874.13
2022-11-10T21:26:32.367Z,97862.41
2022-11-10T21:29:17.529Z,97860.28
2022-11-10T21:32:02.522Z,97866.81
2022-11-10T21:34:47.657Z,97847.56
2022-11-10T21:37:32.845Z,97843.94
2022-11-10T21:40:17.911Z,97835.91
2022-11-10T21:43:03.691Z,97838.00
2022-11-10T21:45:48.673Z,97827.72
2022-11-10T21:48:35.061Z,97833.38
2022-11-10T21:51:21.151Z,97817.94
2022-11-10T21:54:06.345Z,97811.97
2022-11-10T21:56:51.705Z,97818.16
2022-11-10T21:59:36.791Z,97834.97
2022-11-10T22:02:22.224Z,97831.66
2022-11-10T22:05:07.760Z,97818.50
2022-11-10T22:07:53.047Z,97828.34
2022-11-10T22:10:56.790Z,97821.06
2022-11-10T22:14:00.869Z,97828.59
2022-11-10T22:17:06.847Z,97838.38
2022-11-10T22:19:51.958Z,97830.63
2022-11-10T22:22:37.029Z,97829.94
2022-11-10T22:25:21.914Z,97819.31
2022-11-10T22:28:06.982Z,97842.06
2022-11-10T22:30:52.101Z,97838.50
2022-11-10T22:33:39.267Z,97841.63
2022-11-10T22:36:24.586Z,97848.84
2022-11-10T22:39:10.338Z,97854.03
2022-11-10T22:42:14.419Z,97853.50
2022-11-10T22:44:59.609Z,97862.09
2022-11-10T22:48:03.387Z,97859.28
2022-11-10T22:50:59.272Z,97862.63
2022-11-10T22:53:44.299Z,97847.63
2022-11-10T22:56:31.684Z,97862.63
2022-11-10T22:59:18.068Z,97878.09
2022-11-10T23:02:03.370Z,97901.69
2022-11-10T23:04:48.791Z,97891.91
2022-11-10T23:07:33.951Z,97918.56
2022-11-10T23:10:18.964Z,97910.09
2022-11-10T23:13:04.396Z,97935.13
2022-11-10T23:15:52.337Z,97933.34
2022-11-10T23:18:39.174Z,97936.44
2022-11-10T23:21:28.587Z,97924.56
2022-11-10T23:24:13.616Z,97921.72
2022-11-10T23:26:58.976Z,97924.31
2022-11-10T23:29:44.342Z,97906.25
2022-11-10T23:32:29.262Z,97914.25
2022-11-10T23:35:14.220Z,97913.22
2022-11-10T23:37:59.776Z,97907.03
2022-11-10T23:40:45.126Z,97920.97
2022-11-10T23:43:30.811Z,97924.06
2022-11-10T23:46:16.077Z,97903.66
2022-11-10T23:49:01.348Z,97908.34
2022-11-10T23:51:46.369Z,97899.03
2022-11-10T23:54:31.469Z,97910.66
2022-11-10T23:57:16.618Z,97917.59
